sensor_id;sensor_type;location;lat;lon;timestamp;P1;durP1;ratioP1;P2;durP2;ratioP2
45962;SDS011;31669;49.892;20.818;2022-09-01T00:02:29;2.92;;;1.20;;
45962;SDS011;31669;49.892;20.818;2022-09-01T00:07:30;2.90;;;1.13;;
45962;SDS011;31669;49.892;20.818;2022-09-01T00:12:31;2.20;;;0.82;;
45962;SDS011;31669;49.892;20.818;2022-09-01T00:17:32;3.90;;;1.10;;
45962;SDS011;31669;49.892;20.818;2022-09-01T00:22:34;1.10;;;0.98;;
45962;SDS011;31669;49.892;20.818;2022-09-01T00:27:34;1.17;;;0.97;;
45962;SDS011;31669;49.892;20.818;2022-09-01T00:32:36;2.42;;;1.23;;
45962;SDS011;31669;49.892;20.818;2022-09-01T00:37:36;1.50;;;1.10;;
45962;SDS011;31669;49.892;20.818;2022-09-01T00:42:36;2.20;;;1.27;;
45962;SDS011;31669;49.892;20.818;2022-09-01T00:47:39;1.80;;;1.30;;
45962;SDS011;31669;49.892;20.818;2022-09-01T00:52:45;3.97;;;1.60;;
45962;SDS011;31669;49.892;20.818;2022-09-01T00:57:47;1.23;;;1.13;;
45962;SDS011;31669;49.892;20.818;2022-09-01T01:02:48;1.98;;;1.08;;
45962;SDS011;31669;49.892;20.818;2022-09-01T01:07:53;2.38;;;1.52;;
45962;SDS011;31669;49.892;20.818;2022-09-01T01:17:55;2.10;;;1.45;;
45962;SDS011;31669;49.892;20.818;2022-09-01T01:23:00;2.07;;;1.20;;
45962;SDS011;31669;49.892;20.818;2022-09-01T01:28:10;1.15;;;0.98;;
45962;SDS011;31669;49.892;20.818;2022-09-01T01:33:10;1.80;;;1.25;;
45962;SDS011;31669;49.892;20.818;2022-09-01T01:38:11;2.00;;;0.90;;
45962;SDS011;31669;49.892;20.818;2022-09-01T01:43:14;1.23;;;0.90;;
45962;SDS011;31669;49.892;20.818;2022-09-01T01:48:19;2.28;;;1.08;;
45962;SDS011;31669;49.892;20.818;2022-09-01T01:53:23;1.30;;;0.88;;
45962;SDS011;31669;49.892;20.818;2022-09-01T01:58:23;1.67;;;1.27;;
45962;SDS011;31669;49.892;20.818;2022-09-01T02:03:26;2.63;;;1.38;;
45962;SDS011;31669;49.892;20.818;2022-09-01T02:08:28;2.10;;;1.25;;
45962;SDS011;31669;49.892;20.818;2022-09-01T02:13:28;2.23;;;1.17;;
45962;SDS011;31669;49.892;20.818;2022-09-01T02:18:32;2.45;;;1.23;;
45962;SDS011;31669;49.892;20.818;2022-09-01T02:23:37;1.40;;;1.17;;
45962;SDS011;31669;49.892;20.818;2022-09-01T02:28:39;1.38;;;1.08;;
45962;SDS011;31669;49.892;20.818;2022-09-01T02:33:41;1.80;;;1.05;;
45962;SDS011;31669;49.892;20.818;2022-09-01T02:38:46;0.82;;;0.80;;
45962;SDS011;31669;49.892;20.818;2022-09-01T02:43:47;1.95;;;1.05;;
45962;SDS011;31669;49.892;20.818;2022-09-01T02:48:48;1.75;;;1.23;;
45962;SDS011;31669;49.892;20.818;2022-09-01T02:53:50;1.23;;;1.10;;
45962;SDS011;31669;49.892;20.818;2022-09-01T02:58:52;1.30;;;1.20;;
45962;SDS011;31669;49.892;20.818;2022-09-01T03:03:54;1.13;;;0.80;;
45962;SDS011;31669;49.892;20.818;2022-09-01T03:08:55;1.40;;;0.80;;
45962;SDS011;31669;49.892;20.818;2022-09-01T03:13:59;0.85;;;0.73;;
45962;SDS011;31669;49.892;20.818;2022-09-01T03:18:59;1.47;;;1.27;;
45962;SDS011;31669;49.892;20.818;2022-09-01T03:24:02;1.58;;;1.05;;
45962;SDS011;31669;49.892;20.818;2022-09-01T03:29:03;1.00;;;0.93;;
45962;SDS011;31669;49.892;20.818;2022-09-01T03:34:04;1.80;;;1.03;;
45962;SDS011;31669;49.892;20.818;2022-09-01T03:44:09;3.20;;;1.33;;
45962;SDS011;31669;49.892;20.818;2022-09-01T03:49:13;2.05;;;1.20;;
45962;SDS011;31669;49.892;20.818;2022-09-01T03:54:14;1.98;;;0.95;;
45962;SDS011;31669;49.892;20.818;2022-09-01T03:59:15;1.37;;;0.93;;
45962;SDS011;31669;49.892;20.818;2022-09-01T04:04:19;2.35;;;1.00;;
45962;SDS011;31669;49.892;20.818;2022-09-01T04:09:19;1.93;;;1.03;;
45962;SDS011;31669;49.892;20.818;2022-09-01T04:14:20;2.10;;;1.37;;
45962;SDS011;31669;49.892;20.818;2022-09-01T04:19:21;3.37;;;1.70;;
45962;SDS011;31669;49.892;20.818;2022-09-01T04:24:26;2.42;;;1.27;;
45962;SDS011;31669;49.892;20.818;2022-09-01T04:29:27;3.55;;;1.65;;
45962;SDS011;31669;49.892;20.818;2022-09-01T04:34:29;7.32;;;1.05;;
45962;SDS011;31669;49.892;20.818;2022-09-01T04:39:36;0.70;;;0.70;;
45962;SDS011;31669;49.892;20.818;2022-09-01T04:44:38;1.38;;;1.17;;
45962;SDS011;31669;49.892;20.818;2022-09-01T04:49:39;1.33;;;0.80;;
45962;SDS011;31669;49.892;20.818;2022-09-01T04:54:39;3.23;;;1.50;;
45962;SDS011;31669;49.892;20.818;2022-09-01T04:59:40;0.97;;;0.97;;
45962;SDS011;31669;49.892;20.818;2022-09-01T05:04:42;4.65;;;1.38;;
45962;SDS011;31669;49.892;20.818;2022-09-01T05:09:45;2.15;;;1.17;;
45962;SDS011;31669;49.892;20.818;2022-09-01T05:14:46;5.53;;;1.80;;
45962;SDS011;31669;49.892;20.818;2022-09-01T05:19:47;1.42;;;0.88;;
45962;SDS011;31669;49.892;20.818;2022-09-01T05:24:49;1.30;;;1.20;;
45962;SDS011;31669;49.892;20.818;2022-09-01T05:29:53;2.58;;;1.10;;
45962;SDS011;31669;49.892;20.818;2022-09-01T05:34:53;2.43;;;1.53;;
45962;SDS011;31669;49.892;20.818;2022-09-01T05:39:54;0.80;;;0.70;;
45962;SDS011;31669;49.892;20.818;2022-09-01T05:49:57;2.10;;;1.30;;
45962;SDS011;31669;49.892;20.818;2022-09-01T05:55:00;3.50;;;1.52;;
45962;SDS011;31669;49.892;20.818;2022-09-01T06:00:04;3.53;;;1.67;;
45962;SDS011;31669;49.892;20.818;2022-09-01T06:05:10;1.65;;;1.38;;
45962;SDS011;31669;49.892;20.818;2022-09-01T06:10:10;2.30;;;1.23;;
45962;SDS011;31669;49.892;20.818;2022-09-01T06:15:13;2.53;;;1.92;;
45962;SDS011;31669;49.892;20.818;2022-09-01T06:25:18;1.73;;;1.13;;
45962;SDS011;31669;49.892;20.818;2022-09-01T06:35:22;3.20;;;1.73;;
45962;SDS011;31669;49.892;20.818;2022-09-01T06:40:28;6.38;;;1.90;;
45962;SDS011;31669;49.892;20.818;2022-09-01T06:45:29;2.10;;;1.77;;
45962;SDS011;31669;49.892;20.818;2022-09-01T06:50:30;1.35;;;1.17;;
45962;SDS011;31669;49.892;20.818;2022-09-01T06:55:30;2.20;;;0.90;;
45962;SDS011;31669;49.892;20.818;2022-09-01T07:00:37;1.77;;;0.98;;
45962;SDS011;31669;49.892;20.818;2022-09-01T07:05:42;1.67;;;1.05;;
45962;SDS011;31669;49.892;20.818;2022-09-01T07:10:44;2.60;;;1.17;;
45962;SDS011;31669;49.892;20.818;2022-09-01T07:15:45;1.30;;;1.05;;
45962;SDS011;31669;49.892;20.818;2022-09-01T07:20:49;0.95;;;0.95;;
45962;SDS011;31669;49.892;20.818;2022-09-01T07:25:51;1.02;;;0.68;;
45962;SDS011;31669;49.892;20.818;2022-09-01T07:30:59;1.55;;;1.35;;
45962;SDS011;31669;49.892;20.818;2022-09-01T07:35:59;1.90;;;1.00;;
45962;SDS011;31669;49.892;20.818;2022-09-01T07:41:03;1.80;;;1.40;;
45962;SDS011;31669;49.892;20.818;2022-09-01T07:46:04;1.93;;;0.90;;
45962;SDS011;31669;49.892;20.818;2022-09-01T07:51:06;5.20;;;1.23;;
45962;SDS011;31669;49.892;20.818;2022-09-01T07:56:07;1.10;;;1.00;;
45962;SDS011;31669;49.892;20.818;2022-09-01T08:01:09;1.23;;;1.10;;
45962;SDS011;31669;49.892;20.818;2022-09-01T08:06:11;1.20;;;1.10;;
45962;SDS011;31669;49.892;20.818;2022-09-01T08:11:16;1.52;;;0.93;;
45962;SDS011;31669;49.892;20.818;2022-09-01T08:16:20;1.00;;;0.50;;
45962;SDS011;31669;49.892;20.818;2022-09-01T08:21:22;1.70;;;0.75;;
45962;SDS011;31669;49.892;20.818;2022-09-01T08:26:23;1.73;;;0.50;;
45962;SDS011;31669;49.892;20.818;2022-09-01T08:31:24;1.13;;;0.75;;
45962;SDS011;31669;49.892;20.818;2022-09-01T08:36:26;0.93;;;0.60;;
45962;SDS011;31669;49.892;20.818;2022-09-01T08:41:43;4.87;;;1.20;;
45962;SDS011;31669;49.892;20.818;2022-09-01T08:46:44;2.22;;;1.05;;
45962;SDS011;31669;49.892;20.818;2022-09-01T08:57:25;2.35;;;1.25;;
45962;SDS011;31669;49.892;20.818;2022-09-01T09:17:48;1.20;;;0.88;;
45962;SDS011;31669;49.892;20.818;2022-09-01T09:22:51;0.88;;;0.70;;
45962;SDS011;31669;49.892;20.818;2022-09-01T09:37:55;3.50;;;0.70;;
45962;SDS011;31669;49.892;20.818;2022-09-01T09:47:56;0.70;;;0.43;;
45962;SDS011;31669;49.892;20.818;2022-09-01T09:58:10;0.45;;;0.40;;
45962;SDS011;31669;49.892;20.818;2022-09-01T10:03:11;0.50;;;0.40;;
45962;SDS011;31669;49.892;20.818;2022-09-01T10:08:13;1.03;;;0.80;;
45962;SDS011;31669;49.892;20.818;2022-09-01T10:13:36;2.05;;;1.08;;
45962;SDS011;31669;49.892;20.818;2022-09-01T10:18:38;3.23;;;0.90;;
45962;SDS011;31669;49.892;20.818;2022-09-01T10:23:40;0.40;;;0.15;;
45962;SDS011;31669;49.892;20.818;2022-09-01T10:28:51;0.10;;;0.10;;
45962;SDS011;31669;49.892;20.818;2022-09-01T10:33:55;0.65;;;0.40;;
45962;SDS011;31669;49.892;20.818;2022-09-01T10:38:55;0.63;;;0.57;;
45962;SDS011;31669;49.892;20.818;2022-09-01T10:44:02;0.80;;;0.37;;
45962;SDS011;31669;49.892;20.818;2022-09-01T10:59:39;0.50;;;0.50;;
45962;SDS011;31669;49.892;20.818;2022-09-01T11:09:41;0.50;;;0.50;;
45962;SDS011;31669;49.892;20.818;2022-09-01T11:14:53;1.85;;;0.40;;
45962;SDS011;31669;49.892;20.818;2022-09-01T11:25:30;0.22;;;0.10;;
45962;SDS011;31669;49.892;20.818;2022-09-01T11:31:17;1.75;;;0.50;;
45962;SDS011;31669;49.892;20.818;2022-09-01T11:35:59;0.38;;;0.15;;
45962;SDS011;31669;49.892;20.818;2022-09-01T11:41:00;1.42;;;0.45;;
45962;SDS011;31669;49.892;20.818;2022-09-01T11:46:07;1.33;;;0.23;;
45962;SDS011;31669;49.892;20.818;2022-09-01T11:51:09;1.75;;;0.40;;
45962;SDS011;31669;49.892;20.818;2022-09-01T11:56:12;0.10;;;0.10;;
45962;SDS011;31669;49.892;20.818;2022-09-01T12:01:14;1.30;;;0.55;;
45962;SDS011;31669;49.892;20.818;2022-09-01T12:06:26;0.52;;;0.30;;
45962;SDS011;31669;49.892;20.818;2022-09-01T12:11:28;0.32;;;0.10;;
45962;SDS011;31669;49.892;20.818;2022-09-01T12:16:31;1.83;;;0.47;;
45962;SDS011;31669;49.892;20.818;2022-09-01T12:21:35;0.30;;;0.30;;
45962;SDS011;31669;49.892;20.818;2022-09-01T12:26:42;0.40;;;0.40;;
45962;SDS011;31669;49.892;20.818;2022-09-01T12:31:45;3.22;;;0.20;;
45962;SDS011;31669;49.892;20.818;2022-09-01T12:37:00;1.45;;;0.45;;
45962;SDS011;31669;49.892;20.818;2022-09-01T12:47:11;0.70;;;0.47;;
45962;SDS011;31669;49.892;20.818;2022-09-01T12:52:20;1.67;;;0.40;;
45962;SDS011;31669;49.892;20.818;2022-09-01T12:57:28;1.05;;;0.60;;
45962;SDS011;31669;49.892;20.818;2022-09-01T13:02:33;1.48;;;0.60;;
45962;SDS011;31669;49.892;20.818;2022-09-01T13:07:34;1.27;;;0.47;;
45962;SDS011;31669;49.892;20.818;2022-09-01T13:12:38;0.10;;;0.10;;
45962;SDS011;31669;49.892;20.818;2022-09-01T13:17:40;0.10;;;0.10;;
45962;SDS011;31669;49.892;20.818;2022-09-01T13:22:40;0.13;;;0.13;;
45962;SDS011;31669;49.892;20.818;2022-09-01T13:27:44;0.10;;;0.08;;
45962;SDS011;31669;49.892;20.818;2022-09-01T13:32:46;2.10;;;0.17;;
45962;SDS011;31669;49.892;20.818;2022-09-01T13:37:47;0.17;;;0.17;;
45962;SDS011;31669;49.892;20.818;2022-09-01T13:42:50;0.15;;;0.10;;
45962;SDS011;31669;49.892;20.818;2022-09-01T13:47:51;0.20;;;0.10;;
45962;SDS011;31669;49.892;20.818;2022-09-01T13:57:53;0.95;;;0.10;;
45962;SDS011;31669;49.892;20.818;2022-09-01T14:07:56;0.10;;;0.10;;
45962;SDS011;31669;49.892;20.818;2022-09-01T14:12:58;0.17;;;0.10;;
45962;SDS011;31669;49.892;20.818;2022-09-01T14:23:03;0.63;;;0.22;;
45962;SDS011;31669;49.892;20.818;2022-09-01T14:28:04;0.47;;;0.47;;
45962;SDS011;31669;49.892;20.818;2022-09-01T14:33:05;0.40;;;0.40;;
45962;SDS011;31669;49.892;20.818;2022-09-01T14:38:07;1.50;;;0.63;;
45962;SDS011;31669;49.892;20.818;2022-09-01T14:43:08;2.72;;;0.70;;
45962;SDS011;31669;49.892;20.818;2022-09-01T14:53:10;0.20;;;0.13;;
45962;SDS011;31669;49.892;20.818;2022-09-01T14:58:11;0.47;;;0.32;;
45962;SDS011;31669;49.892;20.818;2022-09-01T15:03:11;1.60;;;0.70;;
45962;SDS011;31669;49.892;20.818;2022-09-01T15:08:12;0.95;;;0.52;;
45962;SDS011;31669;49.892;20.818;2022-09-01T15:13:12;0.77;;;0.70;;
45962;SDS011;31669;49.892;20.818;2022-09-01T15:18:13;0.30;;;0.30;;
45962;SDS011;31669;49.892;20.818;2022-09-01T15:23:18;0.20;;;0.20;;
45962;SDS011;31669;49.892;20.818;2022-09-01T15:28:19;2.10;;;0.63;;
45962;SDS011;31669;49.892;20.818;2022-09-01T15:33:20;1.47;;;0.60;;
45962;SDS011;31669;49.892;20.818;2022-09-01T15:38:20;2.63;;;0.67;;
45962;SDS011;31669;49.892;20.818;2022-09-01T15:43:21;0.80;;;0.40;;
45962;SDS011;31669;49.892;20.818;2022-09-01T15:48:26;0.98;;;0.70;;
45962;SDS011;31669;49.892;20.818;2022-09-01T15:53:27;0.77;;;0.45;;
45962;SDS011;31669;49.892;20.818;2022-09-01T15:58:27;0.93;;;0.60;;
45962;SDS011;31669;49.892;20.818;2022-09-01T16:03:28;4.73;;;1.70;;
45962;SDS011;31669;49.892;20.818;2022-09-01T16:08:31;2.97;;;0.93;;
45962;SDS011;31669;49.892;20.818;2022-09-01T16:13:32;1.83;;;1.10;;
45962;SDS011;31669;49.892;20.818;2022-09-01T16:18:47;1.00;;;0.67;;
45962;SDS011;31669;49.892;20.818;2022-09-01T16:23:49;3.13;;;0.90;;
45962;SDS011;31669;49.892;20.818;2022-09-01T16:28:52;1.45;;;0.65;;
45962;SDS011;31669;49.892;20.818;2022-09-01T16:33:57;0.95;;;0.73;;
45962;SDS011;31669;49.892;20.818;2022-09-01T16:54:15;3.97;;;1.20;;
45962;SDS011;31669;49.892;20.818;2022-09-01T17:04:37;4.75;;;1.20;;
45962;SDS011;31669;49.892;20.818;2022-09-01T17:14:47;1.83;;;1.13;;
45962;SDS011;31669;49.892;20.818;2022-09-01T17:19:48;2.60;;;1.10;;
45962;SDS011;31669;49.892;20.818;2022-09-01T17:24:56;2.33;;;1.15;;
45962;SDS011;31669;49.892;20.818;2022-09-01T17:30:00;4.68;;;1.45;;
45962;SDS011;31669;49.892;20.818;2022-09-01T17:40:22;2.20;;;1.27;;
45962;SDS011;31669;49.892;20.818;2022-09-01T17:45:29;4.13;;;2.10;;
45962;SDS011;31669;49.892;20.818;2022-09-01T17:50:36;5.38;;;1.50;;
45962;SDS011;31669;49.892;20.818;2022-09-01T17:55:49;8.10;;;1.75;;
45962;SDS011;31669;49.892;20.818;2022-09-01T18:01:04;5.28;;;1.55;;
45962;SDS011;31669;49.892;20.818;2022-09-01T18:06:12;6.43;;;1.88;;
45962;SDS011;31669;49.892;20.818;2022-09-01T18:11:22;4.28;;;1.92;;
45962;SDS011;31669;49.892;20.818;2022-09-01T18:16:28;1.77;;;1.35;;
45962;SDS011;31669;49.892;20.818;2022-09-01T18:21:31;3.08;;;1.52;;
45962;SDS011;31669;49.892;20.818;2022-09-01T18:26:34;4.75;;;1.58;;
45962;SDS011;31669;49.892;20.818;2022-09-01T18:52:03;3.80;;;2.08;;
45962;SDS011;31669;49.892;20.818;2022-09-01T18:57:07;4.40;;;2.00;;
45962;SDS011;31669;49.892;20.818;2022-09-01T19:07:29;3.22;;;1.67;;
45962;SDS011;31669;49.892;20.818;2022-09-01T19:23:12;4.85;;;1.55;;
45962;SDS011;31669;49.892;20.818;2022-09-01T19:28:19;2.08;;;1.20;;
45962;SDS011;31669;49.892;20.818;2022-09-01T19:33:23;2.78;;;1.35;;
45962;SDS011;31669;49.892;20.818;2022-09-01T19:38:28;2.13;;;1.40;;
45962;SDS011;31669;49.892;20.818;2022-09-01T19:43:31;1.15;;;0.85;;
45962;SDS011;31669;49.892;20.818;2022-09-01T19:53:36;3.70;;;1.70;;
45962;SDS011;31669;49.892;20.818;2022-09-01T19:59:25;4.00;;;1.77;;
45962;SDS011;31669;49.892;20.818;2022-09-01T20:04:02;2.40;;;1.27;;
45962;SDS011;31669;49.892;20.818;2022-09-01T20:09:06;6.32;;;1.80;;
45962;SDS011;31669;49.892;20.818;2022-09-01T20:24:26;1.10;;;0.83;;
45962;SDS011;31669;49.892;20.818;2022-09-01T20:29:31;1.92;;;1.20;;
45962;SDS011;31669;49.892;20.818;2022-09-01T20:34:44;2.70;;;1.17;;
45962;SDS011;31669;49.892;20.818;2022-09-01T20:39:55;1.88;;;1.05;;
45962;SDS011;31669;49.892;20.818;2022-09-01T20:45:08;1.60;;;0.90;;
45962;SDS011;31669;49.892;20.818;2022-09-01T20:50:11;3.60;;;1.23;;
45962;SDS011;31669;49.892;20.818;2022-09-01T21:00:18;2.85;;;1.10;;
45962;SDS011;31669;49.892;20.818;2022-09-01T21:10:28;3.30;;;1.48;;
45962;SDS011;31669;49.892;20.818;2022-09-01T21:15:45;2.13;;;1.10;;
45962;SDS011;31669;49.892;20.818;2022-09-01T21:25:57;5.25;;;1.90;;
45962;SDS011;31669;49.892;20.818;2022-09-01T21:35:59;6.25;;;1.95;;
45962;SDS011;31669;49.892;20.818;2022-09-01T21:46:01;3.05;;;1.77;;
45962;SDS011;31669;49.892;20.818;2022-09-01T21:51:01;3.63;;;1.42;;
45962;SDS011;31669;49.892;20.818;2022-09-01T21:56:04;4.32;;;1.40;;
45962;SDS011;31669;49.892;20.818;2022-09-01T22:01:05;2.47;;;0.83;;
45962;SDS011;31669;49.892;20.818;2022-09-01T22:06:09;2.17;;;1.20;;
45962;SDS011;31669;49.892;20.818;2022-09-01T22:11:10;2.22;;;1.05;;
45962;SDS011;31669;49.892;20.818;2022-09-01T22:16:14;1.20;;;1.00;;
45962;SDS011;31669;49.892;20.818;2022-09-01T22:21:15;1.17;;;0.95;;
45962;SDS011;31669;49.892;20.818;2022-09-01T22:26:20;2.65;;;1.17;;
45962;SDS011;31669;49.892;20.818;2022-09-01T22:31:22;6.38;;;1.40;;
45962;SDS011;31669;49.892;20.818;2022-09-01T22:41:24;2.83;;;0.80;;
45962;SDS011;31669;49.892;20.818;2022-09-01T22:46:25;3.17;;;2.00;;
45962;SDS011;31669;49.892;20.818;2022-09-01T22:51:26;1.60;;;1.13;;
45962;SDS011;31669;49.892;20.818;2022-09-01T22:56:28;2.17;;;1.00;;
45962;SDS011;31669;49.892;20.818;2022-09-01T23:01:31;1.75;;;1.33;;
45962;SDS011;31669;49.892;20.818;2022-09-01T23:06:32;1.15;;;0.80;;
45962;SDS011;31669;49.892;20.818;2022-09-01T23:11:33;2.85;;;1.17;;
45962;SDS011;31669;49.892;20.818;2022-09-01T23:16:34;1.00;;;0.90;;
45962;SDS011;31669;49.892;20.818;2022-09-01T23:21:36;2.60;;;1.37;;
45962;SDS011;31669;49.892;20.818;2022-09-01T23:26:36;2.80;;;1.30;;
45962;SDS011;31669;49.892;20.818;2022-09-01T23:31:37;1.60;;;0.97;;
45962;SDS011;31669;49.892;20.818;2022-09-01T23:36:37;2.67;;;1.13;;
45962;SDS011;31669;49.892;20.818;2022-09-01T23:41:38;1.43;;;1.27;;
45962;SDS011;31669;49.892;20.818;2022-09-01T23:46:40;3.90;;;1.50;;
45962;SDS011;31669;49.892;20.818;2022-09-01T23:51:42;4.45;;;1.50;;
